sensor_id;sensor_type;location;lat;lon;timestamp;P1;durP1;ratioP1;P2;durP2;ratioP2
53281;SDS011;39167;52.794;6.892;2023-04-24T00:01:47;1.63;;;1.33;;
53281;SDS011;39167;52.794;6.892;2023-04-24T00:04:13;3.08;;;2.25;;
53281;SDS011;39167;52.794;6.892;2023-04-24T00:06:41;2.42;;;1.58;;
53281;SDS011;39167;52.794;6.892;2023-04-24T00:09:11;1.88;;;1.40;;
53281;SDS011;39167;52.794;6.892;2023-04-24T00:11:37;1.92;;;1.52;;
53281;SDS011;39167;52.794;6.892;2023-04-24T00:14:02;2.00;;;1.70;;
53281;SDS011;39167;52.794;6.892;2023-04-24T00:16:28;2.33;;;1.80;;
53281;SDS011;39167;52.794;6.892;2023-04-24T00:18:54;2.35;;;2.10;;
53281;SDS011;39167;52.794;6.892;2023-04-24T00:21:20;2.42;;;1.90;;
53281;SDS011;39167;52.794;6.892;2023-04-24T00:23:46;3.85;;;2.25;;
53281;SDS011;39167;52.794;6.892;2023-04-24T00:26:13;2.83;;;2.00;;
53281;SDS011;39167;52.794;6.892;2023-04-24T00:28:38;3.65;;;2.33;;
53281;SDS011;39167;52.794;6.892;2023-04-24T00:31:04;2.78;;;2.08;;
53281;SDS011;39167;52.794;6.892;2023-04-24T00:33:30;2.78;;;1.90;;
53281;SDS011;39167;52.794;6.892;2023-04-24T00:35:56;4.90;;;1.90;;
53281;SDS011;39167;52.794;6.892;2023-04-24T00:38:22;3.42;;;1.73;;
53281;SDS011;39167;52.794;6.892;2023-04-24T00:40:48;2.42;;;1.98;;
53281;SDS011;39167;52.794;6.892;2023-04-24T00:43:15;2.78;;;1.50;;
53281;SDS011;39167;52.794;6.892;2023-04-24T00:45:42;1.85;;;1.50;;
53281;SDS011;39167;52.794;6.892;2023-04-24T00:48:08;1.90;;;1.45;;
53281;SDS011;39167;52.794;6.892;2023-04-24T00:50:35;2.75;;;1.20;;
53281;SDS011;39167;52.794;6.892;2023-04-24T00:53:01;1.50;;;1.10;;
53281;SDS011;39167;52.794;6.892;2023-04-24T00:55:27;2.92;;;1.20;;
53281;SDS011;39167;52.794;6.892;2023-04-24T00:57:53;1.65;;;1.27;;
53281;SDS011;39167;52.794;6.892;2023-04-24T01:00:19;2.20;;;1.58;;
53281;SDS011;39167;52.794;6.892;2023-04-24T01:02:45;2.20;;;1.40;;
53281;SDS011;39167;52.794;6.892;2023-04-24T01:05:12;1.77;;;1.27;;
53281;SDS011;39167;52.794;6.892;2023-04-24T01:07:40;2.75;;;1.27;;
53281;SDS011;39167;52.794;6.892;2023-04-24T01:10:10;2.83;;;1.50;;
53281;SDS011;39167;52.794;6.892;2023-04-24T01:12:37;2.08;;;1.50;;
53281;SDS011;39167;52.794;6.892;2023-04-24T01:15:04;2.38;;;1.80;;
53281;SDS011;39167;52.794;6.892;2023-04-24T01:17:31;2.53;;;1.80;;
53281;SDS011;39167;52.794;6.892;2023-04-24T01:19:58;2.70;;;1.80;;
53281;SDS011;39167;52.794;6.892;2023-04-24T01:22:25;2.42;;;1.65;;
53281;SDS011;39167;52.794;6.892;2023-04-24T01:24:51;2.40;;;1.88;;
53281;SDS011;39167;52.794;6.892;2023-04-24T01:27:18;3.95;;;2.00;;
53281;SDS011;39167;52.794;6.892;2023-04-24T01:29:44;2.72;;;2.30;;
53281;SDS011;39167;52.794;6.892;2023-04-24T01:32:10;2.83;;;2.25;;
53281;SDS011;39167;52.794;6.892;2023-04-24T01:34:37;3.65;;;2.42;;
53281;SDS011;39167;52.794;6.892;2023-04-24T01:37:03;2.95;;;2.33;;
53281;SDS011;39167;52.794;6.892;2023-04-24T01:39:30;3.95;;;2.63;;
53281;SDS011;39167;52.794;6.892;2023-04-24T01:41:55;4.57;;;2.90;;
53281;SDS011;39167;52.794;6.892;2023-04-24T01:44:22;4.70;;;2.85;;
53281;SDS011;39167;52.794;6.892;2023-04-24T01:46:48;4.03;;;3.00;;
53281;SDS011;39167;52.794;6.892;2023-04-24T01:49:14;3.83;;;2.88;;
53281;SDS011;39167;52.794;6.892;2023-04-24T01:51:39;5.10;;;3.83;;
53281;SDS011;39167;52.794;6.892;2023-04-24T01:54:05;6.72;;;3.97;;
53281;SDS011;39167;52.794;6.892;2023-04-24T01:56:31;5.32;;;3.67;;
53281;SDS011;39167;52.794;6.892;2023-04-24T01:59:00;6.18;;;4.10;;
53281;SDS011;39167;52.794;6.892;2023-04-24T02:01:31;6.15;;;4.45;;
53281;SDS011;39167;52.794;6.892;2023-04-24T02:03:59;6.43;;;4.63;;
53281;SDS011;39167;52.794;6.892;2023-04-24T02:06:25;6.03;;;4.55;;
53281;SDS011;39167;52.794;6.892;2023-04-24T02:08:51;6.88;;;5.40;;
53281;SDS011;39167;52.794;6.892;2023-04-24T02:11:17;7.90;;;5.07;;
53281;SDS011;39167;52.794;6.892;2023-04-24T02:13:43;9.35;;;5.88;;
53281;SDS011;39167;52.794;6.892;2023-04-24T02:16:09;8.25;;;5.47;;
53281;SDS011;39167;52.794;6.892;2023-04-24T02:18:35;6.72;;;5.15;;
53281;SDS011;39167;52.794;6.892;2023-04-24T02:21:01;8.02;;;5.78;;
53281;SDS011;39167;52.794;6.892;2023-04-24T02:23:26;8.50;;;5.43;;
53281;SDS011;39167;52.794;6.892;2023-04-24T02:25:52;6.85;;;5.57;;
53281;SDS011;39167;52.794;6.892;2023-04-24T02:28:18;6.72;;;4.93;;
53281;SDS011;39167;52.794;6.892;2023-04-24T02:30:44;7.55;;;5.63;;
53281;SDS011;39167;52.794;6.892;2023-04-24T02:33:11;7.18;;;5.40;;
53281;SDS011;39167;52.794;6.892;2023-04-24T02:35:36;7.93;;;5.45;;
53281;SDS011;39167;52.794;6.892;2023-04-24T02:38:02;6.45;;;4.80;;
53281;SDS011;39167;52.794;6.892;2023-04-24T02:40:29;8.27;;;5.13;;
53281;SDS011;39167;52.794;6.892;2023-04-24T02:42:54;7.72;;;5.28;;
53281;SDS011;39167;52.794;6.892;2023-04-24T02:45:20;7.07;;;5.00;;
53281;SDS011;39167;52.794;6.892;2023-04-24T02:47:46;5.75;;;4.60;;
53281;SDS011;39167;52.794;6.892;2023-04-24T02:50:12;6.60;;;4.80;;
53281;SDS011;39167;52.794;6.892;2023-04-24T02:52:37;7.43;;;5.22;;
53281;SDS011;39167;52.794;6.892;2023-04-24T02:55:03;7.60;;;4.78;;
53281;SDS011;39167;52.794;6.892;2023-04-24T02:57:30;6.40;;;4.63;;
53281;SDS011;39167;52.794;6.892;2023-04-24T02:59:56;6.47;;;5.03;;
53281;SDS011;39167;52.794;6.892;2023-04-24T03:02:21;8.23;;;4.88;;
53281;SDS011;39167;52.794;6.892;2023-04-24T03:04:47;6.10;;;4.40;;
53281;SDS011;39167;52.794;6.892;2023-04-24T03:07:13;6.32;;;3.97;;
53281;SDS011;39167;52.794;6.892;2023-04-24T03:09:40;7.40;;;4.85;;
53281;SDS011;39167;52.794;6.892;2023-04-24T03:12:05;7.95;;;4.20;;
53281;SDS011;39167;52.794;6.892;2023-04-24T03:14:31;6.47;;;4.30;;
53281;SDS011;39167;52.794;6.892;2023-04-24T03:16:57;5.50;;;4.03;;
53281;SDS011;39167;52.794;6.892;2023-04-24T03:19:23;5.72;;;4.25;;
53281;SDS011;39167;52.794;6.892;2023-04-24T03:21:49;5.05;;;3.90;;
53281;SDS011;39167;52.794;6.892;2023-04-24T03:24:15;5.47;;;4.05;;
53281;SDS011;39167;52.794;6.892;2023-04-24T03:26:41;6.85;;;4.22;;
53281;SDS011;39167;52.794;6.892;2023-04-24T03:29:06;6.13;;;4.50;;
53281;SDS011;39167;52.794;6.892;2023-04-24T03:31:32;5.88;;;4.45;;
53281;SDS011;39167;52.794;6.892;2023-04-24T03:33:58;9.60;;;5.13;;
53281;SDS011;39167;52.794;6.892;2023-04-24T03:36:23;5.80;;;4.63;;
53281;SDS011;39167;52.794;6.892;2023-04-24T03:38:51;6.70;;;4.65;;
53281;SDS011;39167;52.794;6.892;2023-04-24T03:41:16;6.45;;;4.65;;
53281;SDS011;39167;52.794;6.892;2023-04-24T03:43:42;7.38;;;4.88;;
53281;SDS011;39167;52.794;6.892;2023-04-24T03:46:08;6.80;;;4.43;;
53281;SDS011;39167;52.794;6.892;2023-04-24T03:48:34;6.00;;;4.65;;
53281;SDS011;39167;52.794;6.892;2023-04-24T03:51:00;6.20;;;4.80;;
53281;SDS011;39167;52.794;6.892;2023-04-24T03:53:26;6.18;;;4.75;;
53281;SDS011;39167;52.794;6.892;2023-04-24T03:55:52;6.15;;;4.82;;
53281;SDS011;39167;52.794;6.892;2023-04-24T03:58:18;7.03;;;5.18;;
53281;SDS011;39167;52.794;6.892;2023-04-24T04:00:44;6.80;;;5.07;;
53281;SDS011;39167;52.794;6.892;2023-04-24T04:03:11;6.75;;;4.80;;
53281;SDS011;39167;52.794;6.892;2023-04-24T04:05:38;5.90;;;4.65;;
53281;SDS011;39167;52.794;6.892;2023-04-24T04:08:04;6.07;;;4.82;;
53281;SDS011;39167;52.794;6.892;2023-04-24T04:10:30;5.93;;;4.30;;
53281;SDS011;39167;52.794;6.892;2023-04-24T04:12:56;7.82;;;5.10;;
53281;SDS011;39167;52.794;6.892;2023-04-24T04:15:22;6.82;;;4.53;;
53281;SDS011;39167;52.794;6.892;2023-04-24T04:17:47;6.70;;;4.65;;
53281;SDS011;39167;52.794;6.892;2023-04-24T04:20:13;7.93;;;4.63;;
53281;SDS011;39167;52.794;6.892;2023-04-24T04:22:39;6.80;;;4.88;;
53281;SDS011;39167;52.794;6.892;2023-04-24T04:25:04;6.45;;;4.78;;
53281;SDS011;39167;52.794;6.892;2023-04-24T04:27:31;6.63;;;5.07;;
53281;SDS011;39167;52.794;6.892;2023-04-24T04:30:00;7.25;;;5.35;;
53281;SDS011;39167;52.794;6.892;2023-04-24T04:32:32;7.50;;;5.60;;
53281;SDS011;39167;52.794;6.892;2023-04-24T04:37:30;8.02;;;6.05;;
53281;SDS011;39167;52.794;6.892;2023-04-24T04:39:57;7.55;;;5.40;;
53281;SDS011;39167;52.794;6.892;2023-04-24T04:42:26;8.73;;;6.00;;
53281;SDS011;39167;52.794;6.892;2023-04-24T04:44:55;10.43;;;5.78;;
53281;SDS011;39167;52.794;6.892;2023-04-24T04:47:22;7.07;;;5.68;;
53281;SDS011;39167;52.794;6.892;2023-04-24T04:49:51;7.68;;;5.82;;
53281;SDS011;39167;52.794;6.892;2023-04-24T04:52:17;7.78;;;5.72;;
53281;SDS011;39167;52.794;6.892;2023-04-24T04:54:43;7.57;;;5.63;;
53281;SDS011;39167;52.794;6.892;2023-04-24T04:57:10;8.25;;;5.97;;
53281;SDS011;39167;52.794;6.892;2023-04-24T04:59:35;7.72;;;5.93;;
53281;SDS011;39167;52.794;6.892;2023-04-24T05:02:02;7.38;;;5.50;;
53281;SDS011;39167;52.794;6.892;2023-04-24T05:04:28;8.82;;;5.90;;
53281;SDS011;39167;52.794;6.892;2023-04-24T05:06:53;9.02;;;5.63;;
53281;SDS011;39167;52.794;6.892;2023-04-24T05:09:19;7.60;;;5.32;;
53281;SDS011;39167;52.794;6.892;2023-04-24T05:11:45;7.45;;;5.20;;
53281;SDS011;39167;52.794;6.892;2023-04-24T05:14:10;7.93;;;6.07;;
53281;SDS011;39167;52.794;6.892;2023-04-24T05:16:37;8.27;;;6.00;;
53281;SDS011;39167;52.794;6.892;2023-04-24T05:19:04;7.97;;;5.32;;
53281;SDS011;39167;52.794;6.892;2023-04-24T05:21:30;7.45;;;5.78;;
53281;SDS011;39167;52.794;6.892;2023-04-24T05:23:56;7.40;;;5.15;;
53281;SDS011;39167;52.794;6.892;2023-04-24T05:26:22;7.65;;;5.97;;
53281;SDS011;39167;52.794;6.892;2023-04-24T05:28:48;7.60;;;5.50;;
53281;SDS011;39167;52.794;6.892;2023-04-24T05:31:13;7.95;;;5.18;;
53281;SDS011;39167;52.794;6.892;2023-04-24T05:33:39;7.00;;;4.82;;
53281;SDS011;39167;52.794;6.892;2023-04-24T05:36:05;6.82;;;4.15;;
53281;SDS011;39167;52.794;6.892;2023-04-24T05:38:31;5.97;;;4.10;;
53281;SDS011;39167;52.794;6.892;2023-04-24T05:40:57;6.82;;;4.00;;
53281;SDS011;39167;52.794;6.892;2023-04-24T05:43:23;5.60;;;3.72;;
53281;SDS011;39167;52.794;6.892;2023-04-24T05:45:48;6.00;;;3.58;;
53281;SDS011;39167;52.794;6.892;2023-04-24T05:48:14;6.30;;;2.88;;
53281;SDS011;39167;52.794;6.892;2023-04-24T05:50:40;5.38;;;3.05;;
53281;SDS011;39167;52.794;6.892;2023-04-24T05:53:06;4.88;;;2.47;;
53281;SDS011;39167;52.794;6.892;2023-04-24T05:55:32;5.45;;;3.30;;
53281;SDS011;39167;52.794;6.892;2023-04-24T05:57:58;5.00;;;3.05;;
53281;SDS011;39167;52.794;6.892;2023-04-24T06:00:30;5.97;;;3.17;;
53281;SDS011;39167;52.794;6.892;2023-04-24T06:05:43;10.73;;;3.78;;
53281;SDS011;39167;52.794;6.892;2023-04-24T06:08:09;6.07;;;3.70;;
53281;SDS011;39167;52.794;6.892;2023-04-24T06:10:35;7.65;;;3.47;;
53281;SDS011;39167;52.794;6.892;2023-04-24T06:13:00;4.18;;;2.85;;
53281;SDS011;39167;52.794;6.892;2023-04-24T06:17:58;5.03;;;2.30;;
53281;SDS011;39167;52.794;6.892;2023-04-24T06:20:24;5.28;;;2.65;;
53281;SDS011;39167;52.794;6.892;2023-04-24T06:22:50;3.67;;;2.25;;
53281;SDS011;39167;52.794;6.892;2023-04-24T06:25:15;3.60;;;2.28;;
53281;SDS011;39167;52.794;6.892;2023-04-24T06:27:41;3.80;;;2.38;;
53281;SDS011;39167;52.794;6.892;2023-04-24T06:30:07;4.55;;;2.20;;
53281;SDS011;39167;52.794;6.892;2023-04-24T06:32:33;3.55;;;2.20;;
53281;SDS011;39167;52.794;6.892;2023-04-24T06:34:59;2.90;;;1.92;;
53281;SDS011;39167;52.794;6.892;2023-04-24T06:37:25;3.80;;;2.00;;
53281;SDS011;39167;52.794;6.892;2023-04-24T06:39:51;3.50;;;2.10;;
53281;SDS011;39167;52.794;6.892;2023-04-24T06:42:17;2.40;;;1.60;;
53281;SDS011;39167;52.794;6.892;2023-04-24T06:44:43;4.93;;;2.15;;
53281;SDS011;39167;52.794;6.892;2023-04-24T06:47:09;6.13;;;2.15;;
53281;SDS011;39167;52.794;6.892;2023-04-24T06:49:40;6.22;;;2.28;;
53281;SDS011;39167;52.794;6.892;2023-04-24T06:52:05;4.30;;;2.08;;
53281;SDS011;39167;52.794;6.892;2023-04-24T06:54:32;4.85;;;2.30;;
53281;SDS011;39167;52.794;6.892;2023-04-24T06:56:58;3.80;;;1.92;;
53281;SDS011;39167;52.794;6.892;2023-04-24T06:59:25;2.70;;;1.73;;
53281;SDS011;39167;52.794;6.892;2023-04-24T07:01:52;2.90;;;1.88;;
53281;SDS011;39167;52.794;6.892;2023-04-24T07:04:21;3.03;;;1.60;;
53281;SDS011;39167;52.794;6.892;2023-04-24T07:06:47;4.57;;;1.38;;
53281;SDS011;39167;52.794;6.892;2023-04-24T07:09:14;3.95;;;1.63;;
53281;SDS011;39167;52.794;6.892;2023-04-24T07:11:41;3.05;;;1.20;;
53281;SDS011;39167;52.794;6.892;2023-04-24T07:14:07;4.80;;;1.38;;
53281;SDS011;39167;52.794;6.892;2023-04-24T07:16:33;3.63;;;1.40;;
53281;SDS011;39167;52.794;6.892;2023-04-24T07:18:59;3.28;;;1.40;;
53281;SDS011;39167;52.794;6.892;2023-04-24T07:21:25;2.38;;;1.20;;
53281;SDS011;39167;52.794;6.892;2023-04-24T07:23:52;1.90;;;0.90;;
53281;SDS011;39167;52.794;6.892;2023-04-24T07:26:18;1.55;;;0.70;;
53281;SDS011;39167;52.794;6.892;2023-04-24T07:28:50;1.80;;;0.70;;
53281;SDS011;39167;52.794;6.892;2023-04-24T07:31:16;1.30;;;0.90;;
53281;SDS011;39167;52.794;6.892;2023-04-24T07:33:42;2.10;;;1.30;;
53281;SDS011;39167;52.794;6.892;2023-04-24T07:36:07;1.38;;;0.95;;
53281;SDS011;39167;52.794;6.892;2023-04-24T07:38:33;2.30;;;0.95;;
53281;SDS011;39167;52.794;6.892;2023-04-24T07:40:59;4.32;;;1.27;;
53281;SDS011;39167;52.794;6.892;2023-04-24T07:43:25;2.08;;;1.30;;
53281;SDS011;39167;52.794;6.892;2023-04-24T07:45:50;1.90;;;1.08;;
53281;SDS011;39167;52.794;6.892;2023-04-24T07:48:16;2.78;;;1.80;;
53281;SDS011;39167;52.794;6.892;2023-04-24T07:50:43;3.63;;;1.60;;
53281;SDS011;39167;52.794;6.892;2023-04-24T07:53:09;2.97;;;1.70;;
53281;SDS011;39167;52.794;6.892;2023-04-24T07:55:35;3.75;;;1.40;;
53281;SDS011;39167;52.794;6.892;2023-04-24T07:58:01;2.17;;;1.40;;
53281;SDS011;39167;52.794;6.892;2023-04-24T08:00:27;2.65;;;1.48;;
53281;SDS011;39167;52.794;6.892;2023-04-24T08:02:53;3.33;;;1.73;;
53281;SDS011;39167;52.794;6.892;2023-04-24T08:05:19;3.33;;;1.77;;
53281;SDS011;39167;52.794;6.892;2023-04-24T08:07:45;4.07;;;1.90;;
53281;SDS011;39167;52.794;6.892;2023-04-24T08:10:13;3.67;;;1.85;;
53281;SDS011;39167;52.794;6.892;2023-04-24T08:15:25;4.88;;;2.30;;
53281;SDS011;39167;52.794;6.892;2023-04-24T08:17:52;4.03;;;2.15;;
53281;SDS011;39167;52.794;6.892;2023-04-24T08:28:08;5.00;;;2.35;;
53281;SDS011;39167;52.794;6.892;2023-04-24T08:30:35;7.90;;;2.58;;
53281;SDS011;39167;52.794;6.892;2023-04-24T08:33:01;5.63;;;2.55;;
53281;SDS011;39167;52.794;6.892;2023-04-24T08:35:27;5.50;;;2.50;;
53281;SDS011;39167;52.794;6.892;2023-04-24T08:37:53;4.72;;;2.15;;
53281;SDS011;39167;52.794;6.892;2023-04-24T08:40:19;3.53;;;1.95;;
53281;SDS011;39167;52.794;6.892;2023-04-24T08:42:51;5.50;;;2.08;;
53281;SDS011;39167;52.794;6.892;2023-04-24T08:45:20;3.00;;;1.75;;
53281;SDS011;39167;52.794;6.892;2023-04-24T08:47:46;3.72;;;1.70;;
53281;SDS011;39167;52.794;6.892;2023-04-24T08:50:14;5.93;;;2.40;;
53281;SDS011;39167;52.794;6.892;2023-04-24T08:52:42;5.97;;;1.80;;
53281;SDS011;39167;52.794;6.892;2023-04-24T08:55:08;3.50;;;2.03;;
53281;SDS011;39167;52.794;6.892;2023-04-24T08:57:34;4.13;;;1.60;;
53281;SDS011;39167;52.794;6.892;2023-04-24T09:00:01;4.28;;;2.25;;
53281;SDS011;39167;52.794;6.892;2023-04-24T09:02:27;5.40;;;2.65;;
53281;SDS011;39167;52.794;6.892;2023-04-24T09:04:53;9.15;;;3.65;;
53281;SDS011;39167;52.794;6.892;2023-04-24T09:07:22;10.18;;;4.45;;
53281;SDS011;39167;52.794;6.892;2023-04-24T09:09:50;11.48;;;5.10;;
53281;SDS011;39167;52.794;6.892;2023-04-24T09:12:16;10.30;;;4.63;;
53281;SDS011;39167;52.794;6.892;2023-04-24T09:14:43;12.25;;;5.72;;
53281;SDS011;39167;52.794;6.892;2023-04-24T09:17:10;13.93;;;6.40;;
53281;SDS011;39167;52.794;6.892;2023-04-24T09:19:36;14.43;;;6.78;;
53281;SDS011;39167;52.794;6.892;2023-04-24T09:22:06;16.42;;;8.05;;
53281;SDS011;39167;52.794;6.892;2023-04-24T09:35:09;18.83;;;8.18;;
53281;SDS011;39167;52.794;6.892;2023-04-24T09:37:40;14.77;;;8.23;;
53281;SDS011;39167;52.794;6.892;2023-04-24T09:42:50;18.02;;;9.27;;
53281;SDS011;39167;52.794;6.892;2023-04-24T09:45:19;20.73;;;10.15;;
53281;SDS011;39167;52.794;6.892;2023-04-24T09:47:45;17.48;;;10.70;;
53281;SDS011;39167;52.794;6.892;2023-04-24T09:50:15;22.65;;;11.23;;
53281;SDS011;39167;52.794;6.892;2023-04-24T09:52:42;22.10;;;12.50;;
53281;SDS011;39167;52.794;6.892;2023-04-24T09:55:16;22.10;;;12.63;;
53281;SDS011;39167;52.794;6.892;2023-04-24T09:57:56;24.33;;;13.00;;
53281;SDS011;39167;52.794;6.892;2023-04-24T10:03:04;24.25;;;13.75;;
53281;SDS011;39167;52.794;6.892;2023-04-24T10:05:37;22.73;;;13.27;;
53281;SDS011;39167;52.794;6.892;2023-04-24T10:08:10;20.77;;;12.77;;
53281;SDS011;39167;52.794;6.892;2023-04-24T10:10:46;21.38;;;12.82;;
53281;SDS011;39167;52.794;6.892;2023-04-24T10:13:12;19.02;;;12.70;;
53281;SDS011;39167;52.794;6.892;2023-04-24T10:15:40;19.23;;;12.65;;
53281;SDS011;39167;52.794;6.892;2023-04-24T10:18:07;19.30;;;12.30;;
53281;SDS011;39167;52.794;6.892;2023-04-24T10:20:34;20.00;;;12.30;;
53281;SDS011;39167;52.794;6.892;2023-04-24T10:23:01;17.80;;;11.68;;
53281;SDS011;39167;52.794;6.892;2023-04-24T10:25:37;20.65;;;11.48;;
53281;SDS011;39167;52.794;6.892;2023-04-24T10:28:03;15.10;;;10.38;;
53281;SDS011;39167;52.794;6.892;2023-04-24T10:30:30;21.08;;;11.05;;
53281;SDS011;39167;52.794;6.892;2023-04-24T10:33:00;17.63;;;10.75;;
53281;SDS011;39167;52.794;6.892;2023-04-24T10:38:01;17.65;;;8.52;;
53281;SDS011;39167;52.794;6.892;2023-04-24T10:40:34;16.52;;;9.40;;
53281;SDS011;39167;52.794;6.892;2023-04-24T10:43:04;18.67;;;7.82;;
53281;SDS011;39167;52.794;6.892;2023-04-24T10:45:33;13.18;;;8.18;;
53281;SDS011;39167;52.794;6.892;2023-04-24T10:48:03;14.25;;;8.40;;
53281;SDS011;39167;52.794;6.892;2023-04-24T10:53:18;16.30;;;7.93;;
53281;SDS011;39167;52.794;6.892;2023-04-24T10:55:48;14.10;;;7.82;;
53281;SDS011;39167;52.794;6.892;2023-04-24T10:58:35;14.48;;;8.13;;
53281;SDS011;39167;52.794;6.892;2023-04-24T11:01:03;16.25;;;7.50;;
53281;SDS011;39167;52.794;6.892;2023-04-24T11:03:32;14.07;;;7.53;;
53281;SDS011;39167;52.794;6.892;2023-04-24T11:06:08;15.43;;;7.23;;
53281;SDS011;39167;52.794;6.892;2023-04-24T11:08:44;14.88;;;7.00;;
53281;SDS011;39167;52.794;6.892;2023-04-24T11:19:03;13.68;;;4.38;;
53281;SDS011;39167;52.794;6.892;2023-04-24T11:24:30;15.93;;;4.22;;
53281;SDS011;39167;52.794;6.892;2023-04-24T11:29:40;14.63;;;4.20;;
53281;SDS011;39167;52.794;6.892;2023-04-24T11:35:06;7.43;;;3.88;;
53281;SDS011;39167;52.794;6.892;2023-04-24T11:37:41;11.98;;;4.00;;
53281;SDS011;39167;52.794;6.892;2023-04-24T11:40:09;11.20;;;3.83;;
53281;SDS011;39167;52.794;6.892;2023-04-24T11:42:37;11.80;;;3.35;;
53281;SDS011;39167;52.794;6.892;2023-04-24T11:45:10;13.57;;;4.28;;
53281;SDS011;39167;52.794;6.892;2023-04-24T11:47:37;11.27;;;3.10;;
53281;SDS011;39167;52.794;6.892;2023-04-24T11:50:03;11.27;;;2.95;;
53281;SDS011;39167;52.794;6.892;2023-04-24T11:52:30;10.82;;;3.83;;
53281;SDS011;39167;52.794;6.892;2023-04-24T11:54:56;9.77;;;2.70;;
53281;SDS011;39167;52.794;6.892;2023-04-24T11:57:23;8.30;;;2.70;;
53281;SDS011;39167;52.794;6.892;2023-04-24T11:59:53;14.20;;;3.65;;
53281;SDS011;39167;52.794;6.892;2023-04-24T12:02:25;12.02;;;2.85;;
53281;SDS011;39167;52.794;6.892;2023-04-24T12:04:55;10.63;;;3.17;;
53281;SDS011;39167;52.794;6.892;2023-04-24T12:07:23;10.77;;;3.08;;
53281;SDS011;39167;52.794;6.892;2023-04-24T12:09:55;9.20;;;2.88;;
53281;SDS011;39167;52.794;6.892;2023-04-24T12:12:27;11.43;;;3.00;;
53281;SDS011;39167;52.794;6.892;2023-04-24T12:14:57;7.60;;;2.42;;
53281;SDS011;39167;52.794;6.892;2023-04-24T12:17:31;11.80;;;2.80;;
53281;SDS011;39167;52.794;6.892;2023-04-24T12:39:33;10.02;;;2.63;;
53281;SDS011;39167;52.794;6.892;2023-04-24T12:41:59;7.38;;;2.42;;
53281;SDS011;39167;52.794;6.892;2023-04-24T12:44:31;8.20;;;2.15;;
53281;SDS011;39167;52.794;6.892;2023-04-24T12:47:14;11.40;;;2.58;;
53281;SDS011;39167;52.794;6.892;2023-04-24T12:49:40;9.13;;;2.00;;
53281;SDS011;39167;52.794;6.892;2023-04-24T12:52:06;10.00;;;2.15;;
53281;SDS011;39167;52.794;6.892;2023-04-24T12:54:32;11.13;;;2.30;;
53281;SDS011;39167;52.794;6.892;2023-04-24T12:56:58;9.07;;;2.40;;
53281;SDS011;39167;52.794;6.892;2023-04-24T12:59:25;7.32;;;1.73;;
53281;SDS011;39167;52.794;6.892;2023-04-24T13:01:51;8.52;;;2.25;;
53281;SDS011;39167;52.794;6.892;2023-04-24T13:04:17;11.95;;;2.30;;
53281;SDS011;39167;52.794;6.892;2023-04-24T13:06:42;7.10;;;1.52;;
53281;SDS011;39167;52.794;6.892;2023-04-24T13:09:08;6.93;;;1.45;;
53281;SDS011;39167;52.794;6.892;2023-04-24T13:11:34;5.28;;;1.40;;
53281;SDS011;39167;52.794;6.892;2023-04-24T13:14:00;4.05;;;1.17;;
53281;SDS011;39167;52.794;6.892;2023-04-24T13:16:26;4.22;;;1.50;;
53281;SDS011;39167;52.794;6.892;2023-04-24T13:18:52;2.35;;;0.80;;
53281;SDS011;39167;52.794;6.892;2023-04-24T13:21:17;2.83;;;0.93;;
53281;SDS011;39167;52.794;6.892;2023-04-24T13:23:43;2.55;;;1.10;;
53281;SDS011;39167;52.794;6.892;2023-04-24T13:26:09;8.70;;;1.02;;
53281;SDS011;39167;52.794;6.892;2023-04-24T13:28:34;2.03;;;0.90;;
53281;SDS011;39167;52.794;6.892;2023-04-24T13:31:00;2.88;;;1.08;;
53281;SDS011;39167;52.794;6.892;2023-04-24T13:33:26;7.53;;;1.50;;
53281;SDS011;39167;52.794;6.892;2023-04-24T13:35:57;5.38;;;1.27;;
53281;SDS011;39167;52.794;6.892;2023-04-24T13:38:23;6.50;;;1.27;;
53281;SDS011;39167;52.794;6.892;2023-04-24T13:40:49;2.72;;;1.00;;
53281;SDS011;39167;52.794;6.892;2023-04-24T13:43:15;6.82;;;2.08;;
53281;SDS011;39167;52.794;6.892;2023-04-24T13:45:41;7.38;;;1.35;;
53281;SDS011;39167;52.794;6.892;2023-04-24T13:48:06;5.20;;;1.17;;
53281;SDS011;39167;52.794;6.892;2023-04-24T13:50:33;5.90;;;1.35;;
53281;SDS011;39167;52.794;6.892;2023-04-24T13:52:59;7.47;;;2.03;;
53281;SDS011;39167;52.794;6.892;2023-04-24T13:55:26;6.82;;;1.83;;
53281;SDS011;39167;52.794;6.892;2023-04-24T13:57:52;4.90;;;1.20;;
53281;SDS011;39167;52.794;6.892;2023-04-24T14:00:20;4.30;;;1.20;;
53281;SDS011;39167;52.794;6.892;2023-04-24T14:02:46;6.20;;;1.30;;
53281;SDS011;39167;52.794;6.892;2023-04-24T14:05:12;3.65;;;1.27;;
53281;SDS011;39167;52.794;6.892;2023-04-24T14:07:40;5.88;;;1.83;;
53281;SDS011;39167;52.794;6.892;2023-04-24T14:10:06;7.28;;;1.10;;
53281;SDS011;39167;52.794;6.892;2023-04-24T14:12:32;4.60;;;1.08;;
53281;SDS011;39167;52.794;6.892;2023-04-24T14:14:58;7.25;;;1.50;;
53281;SDS011;39167;52.794;6.892;2023-04-24T14:17:24;5.32;;;1.17;;
53281;SDS011;39167;52.794;6.892;2023-04-24T14:19:50;5.15;;;1.13;;
53281;SDS011;39167;52.794;6.892;2023-04-24T14:22:17;7.50;;;1.95;;
53281;SDS011;39167;52.794;6.892;2023-04-24T14:24:43;5.35;;;1.25;;
53281;SDS011;39167;52.794;6.892;2023-04-24T14:27:08;6.38;;;1.40;;
53281;SDS011;39167;52.794;6.892;2023-04-24T14:29:34;6.53;;;1.50;;
53281;SDS011;39167;52.794;6.892;2023-04-24T14:32:00;4.82;;;1.30;;
53281;SDS011;39167;52.794;6.892;2023-04-24T14:34:26;6.95;;;1.05;;
53281;SDS011;39167;52.794;6.892;2023-04-24T14:36:52;5.18;;;1.35;;
53281;SDS011;39167;52.794;6.892;2023-04-24T14:39:18;8.68;;;1.40;;
53281;SDS011;39167;52.794;6.892;2023-04-24T14:41:44;8.60;;;1.50;;
53281;SDS011;39167;52.794;6.892;2023-04-24T14:44:10;4.28;;;1.30;;
53281;SDS011;39167;52.794;6.892;2023-04-24T14:46:35;5.60;;;2.00;;
53281;SDS011;39167;52.794;6.892;2023-04-24T14:49:01;8.80;;;1.80;;
53281;SDS011;39167;52.794;6.892;2023-04-24T14:51:27;7.72;;;1.92;;
53281;SDS011;39167;52.794;6.892;2023-04-24T14:53:56;9.40;;;2.00;;
53281;SDS011;39167;52.794;6.892;2023-04-24T14:56:22;12.27;;;2.10;;
53281;SDS011;39167;52.794;6.892;2023-04-24T14:58:48;8.95;;;1.90;;
53281;SDS011;39167;52.794;6.892;2023-04-24T15:01:14;6.50;;;1.70;;
53281;SDS011;39167;52.794;6.892;2023-04-24T15:03:40;8.82;;;1.83;;
53281;SDS011;39167;52.794;6.892;2023-04-24T15:06:06;14.70;;;2.10;;
53281;SDS011;39167;52.794;6.892;2023-04-24T15:08:31;10.85;;;2.08;;
53281;SDS011;39167;52.794;6.892;2023-04-24T15:10:57;15.48;;;2.42;;
53281;SDS011;39167;52.794;6.892;2023-04-24T15:13:23;10.48;;;1.92;;
53281;SDS011;39167;52.794;6.892;2023-04-24T15:15:49;10.38;;;2.30;;
53281;SDS011;39167;52.794;6.892;2023-04-24T15:18:15;11.15;;;2.35;;
53281;SDS011;39167;52.794;6.892;2023-04-24T15:20:40;16.77;;;2.83;;
53281;SDS011;39167;52.794;6.892;2023-04-24T15:23:09;13.65;;;3.75;;
53281;SDS011;39167;52.794;6.892;2023-04-24T15:25:36;10.60;;;2.40;;
53281;SDS011;39167;52.794;6.892;2023-04-24T15:28:03;16.02;;;3.38;;
53281;SDS011;39167;52.794;6.892;2023-04-24T15:30:30;14.45;;;3.38;;
53281;SDS011;39167;52.794;6.892;2023-04-24T15:32:56;10.30;;;2.78;;
53281;SDS011;39167;52.794;6.892;2023-04-24T15:35:22;9.95;;;2.58;;
53281;SDS011;39167;52.794;6.892;2023-04-24T15:37:48;10.43;;;2.80;;
53281;SDS011;39167;52.794;6.892;2023-04-24T15:40:14;10.55;;;3.10;;
53281;SDS011;39167;52.794;6.892;2023-04-24T15:42:43;13.30;;;2.63;;
53281;SDS011;39167;52.794;6.892;2023-04-24T15:45:10;12.07;;;2.50;;
53281;SDS011;39167;52.794;6.892;2023-04-24T15:47:36;12.95;;;2.22;;
53281;SDS011;39167;52.794;6.892;2023-04-24T15:50:03;11.23;;;2.58;;
53281;SDS011;39167;52.794;6.892;2023-04-24T15:52:30;11.50;;;2.53;;
53281;SDS011;39167;52.794;6.892;2023-04-24T15:54:55;14.73;;;2.90;;
53281;SDS011;39167;52.794;6.892;2023-04-24T15:57:21;9.77;;;2.90;;